Latest Weather Observations for Cairns

IDQ60801

Issued at 12:02 am EST Saturday 13 February 2016 (issued every 30 minutes, with the page automatically refreshed every 10 minutes)

About weather observations | Map of weather stations | Latest weather observations for QLD | Other Formats
Station Details ID: 031011 Name: CAIRNS AERO Lat: -16.87 Lon: 145.75 Height: 2.22 m
Data from the previous 72 hours. | See also: Recent months at Cairns
Date/Time
EST
Temp
°C
App
Temp
°C
Dew
Point
Rel
Hum
%
Delta-T
°C
Wind Press
QNH
hPa
Press
MSL
hPa
Rain
since 9 am
mm
Dir
 
Spd
km/h
Gust
km/h
Spd
kts
Gust
kts
12/11:30pm 23.8 27.4 22.1 90 1.1 SE 6 15 3 8 1008.8 1008.7 0.0
12/11:00pm 24.0 28.8 22.1 89 1.3 CALM 0 0 0 0 1009.0 1008.9 0.0
12/10:30pm 24.3 27.7 22.0 87 1.5 W 7 9 4 5 1009.3 1009.2 0.0
12/10:00pm 24.4 29.0 21.7 85 1.8 CALM 0 0 0 0 1009.2 1009.1 0.0
12/09:30pm 24.6 29.4 22.1 86 1.7 CALM 0 0 0 0 1009.1 1009.0 0.0
12/09:00pm 25.3 28.6 21.8 81 2.3 W 7 9 4 5 1008.9 1008.8 0.0
12/08:30pm 26.1 29.8 21.5 76 3.1 W 4 9 2 5 1008.8 1008.7 0.0
12/08:00pm 26.1 29.1 20.9 73 3.4 SSE 6 7 3 4 1008.5 1008.4 0.0
12/07:30pm 27.3 30.0 20.6 67 4.4 S 7 9 4 5 1008.1 1008.0 0.0
12/07:00pm 27.8 29.5 20.9 66 4.6 SE 13 19 7 10 1007.6 1007.5 0.0
12/06:30pm 29.2 29.7 21.2 62 5.3 ESE 20 26 11 14 1007.1 1007.0 0.0
12/06:00pm 30.2 30.1 20.7 56 6.3 ESE 22 30 12 16 1006.7 1006.6 0.0
12/05:30pm 31.2 32.8 20.8 54 6.9 ESE 13 17 7 9 1006.4 1006.3 0.0
12/05:00pm 31.4 32.4 21.0 54 7.0 ESE 17 22 9 12 1005.9 1005.8 0.0
12/04:30pm 31.5 30.7 20.8 53 7.1 SE 26 32 14 17 1005.8 1005.7 0.0
12/04:00pm 32.0 31.5 21.5 53 7.1 SE 26 33 14 18 1005.6 1005.5 0.0
12/03:30pm 32.2 32.7 22.0 55 6.9 E 22 30 12 16 1005.7 1005.6 0.0
12/03:00pm 33.1 34.5 22.8 54 7.1 ESE 20 28 11 15 1005.7 1005.6 0.0
12/02:30pm 33.0 33.7 21.2 50 8.0 E 19 26 10 14 1005.9 1005.8 0.0
12/02:00pm 32.3 33.6 22.4 56 6.8 ENE 19 28 10 15 1006.4 1006.3 0.0
12/01:30pm 32.4 31.8 20.6 49 7.9 ENE 24 30 13 16 1006.8 1006.7 0.0
12/01:00pm 32.8 32.9 20.0 47 8.5 ESE 19 28 10 15 1007.2 1007.1 0.0
12/12:30pm 32.8 32.9 20.0 47 8.5 ESE 19 26 10 14 1007.8 1007.7 0.0
12/12:00pm 32.6 33.6 21.1 50 7.7 ESE 17 24 9 13 1008.3 1008.2 0.0
12/11:30am 31.9 32.2 20.8 51 7.4 ESE 20 28 11 15 1008.9 1008.8 0.0
12/11:00am 31.3 33.3 21.5 56 6.6 SE 13 20 7 11 1009.3 1009.2 0.0
12/10:30am 31.1 32.3 20.7 54 6.9 ESE 15 24 8 13 1009.6 1009.5 0.0
12/10:00am 30.4 32.8 22.3 62 5.5 SSE 13 20 7 11 1009.8 1009.7 0.0
12/09:30am 30.0 31.7 22.4 63 5.2 SSE 17 22 9 12 1010.2 1010.1 0.0
12/09:00am 29.2 31.0 21.9 64 4.9 SSE 15 20 8 11 1010.3 1010.2 0.0
12/08:30am 28.0 30.5 22.5 72 3.7 SSE 13 22 7 12 1010.2 1010.1 0.0
12/08:00am 27.7 30.3 22.0 71 3.8 SSE 11 17 6 9 1010.0 1009.9 0.0
12/07:30am 26.0 29.3 22.5 81 2.4 W 9 11 5 6 1009.8 1009.7 0.0
12/07:00am 24.7 28.9 22.4 87 1.5 NNW 4 11 2 6 1009.6 1009.5 0.0
12/06:30am 24.2 27.3 22.1 88 1.4 SSW 9 11 5 6 1009.2 1009.1 0.0
12/06:00am 24.4 28.8 22.1 87 1.5 W 2 7 1 4 1008.8 1008.7 0.0
12/05:30am 24.3 26.7 22.2 88 1.4 SSE 13 15 7 8 1008.5 1008.4 0.0
12/05:00am 25.0 27.7 22.1 84 1.9 SSE 11 15 6 8 1008.2 1008.1 0.0
12/04:30am 25.4 29.0 22.1 82 2.2 SSW 6 15 3 8 1007.9 1007.8 0.0
12/04:00am 25.9 28.9 22.0 79 2.6 SSE 9 15 5 8 1007.8 1007.7 0.0
12/03:30am 25.8 28.1 22.1 80 2.5 SSE 13 19 7 10 1007.6 1007.5 0.0
12/03:00am 26.1 28.2 21.7 77 2.9 S 13 17 7 9 1007.5 1007.4 0.0
12/02:30am 25.9 29.7 22.4 81 2.4 S 6 11 3 6 1007.7 1007.6 0.0
12/02:00am 26.2 29.9 22.5 80 2.5 ENE 7 11 4 6 1007.8 1007.7 0.0
12/01:30am 26.3 28.9 21.9 77 2.9 SE 11 13 6 7 1008.1 1008.0 0.0
12/01:00am 25.8 28.2 22.3 81 2.4 SE 13 17 7 9 1008.4 1008.3 0.0
12/12:30am 25.9 29.1 22.4 81 2.4 ESE 9 13 5 7 1008.6 1008.5 0.0
12/12:00am 26.3 29.0 22.2 78 2.8 E 11 15 6 8 1008.9 1008.8 0.0
 
Date/Time
EST
Temp
°C
App
Temp
°C
Dew
Point
Rel
Hum
%
Delta-T
°C
Wind Press
QNH
hPa
Press
MSL
hPa
Rain
since 9 am
mm
Dir
 
Spd
km/h
Gust
km/h
Spd
kts
Gust
kts
11/11:30pm 26.9 30.1 21.6 72 3.5 SSW 7 13 4 7 1009.1 1009.0 0.0
11/11:00pm 26.4 28.8 22.3 78 2.8 SE 13 15 7 8 1009.3 1009.2 0.0
11/10:30pm 26.8 29.3 21.8 74 3.3 S 11 17 6 9 1009.6 1009.5 0.0
11/10:00pm 27.0 29.8 21.5 72 3.7 S 9 15 5 8 1009.5 1009.4 0.0
11/09:30pm 27.1 29.4 21.4 71 3.8 S 11 19 6 10 1009.3 1009.2 0.0
11/09:00pm 26.9 30.0 22.1 75 3.2 S 9 13 5 7 1009.1 1009.0 0.0
11/08:30pm 26.9 30.0 22.1 75 3.2 S 9 11 5 6 1009.2 1009.1 0.0
11/08:00pm 26.9 30.5 22.1 75 3.2 S 6 9 3 5 1008.9 1008.8 0.0
11/07:30pm 27.2 30.5 21.9 73 3.6 S 7 11 4 6 1008.4 1008.3 0.0
11/07:00pm 27.2 30.2 21.9 73 3.6 S 9 15 5 8 1008.0 1007.9 0.0
11/06:30pm 27.4 30.0 21.9 72 3.7 S 11 15 6 8 1007.8 1007.7 0.0
11/06:00pm 27.3 29.6 22.0 73 3.6 S 13 17 7 9 1007.4 1007.3 0.0
11/05:30pm 27.3 29.8 21.8 72 3.7 SSW 11 19 6 10 1007.0 1006.9 0.0
11/05:00pm 27.6 30.0 21.6 70 4.0 S 11 24 6 13 1006.7 1006.6 0.0
11/04:30pm 27.5 29.4 22.7 75 3.3 S 17 30 9 16 1006.6 1006.5 0.0
11/04:00pm 29.0 27.6 22.2 66 4.6 SE 33 41 18 22 1006.2 1006.1 0.0
11/03:30pm 29.4 29.6 23.4 70 4.1 ESE 28 41 15 22 1006.1 1006.0 0.0
11/03:00pm 31.2 31.9 22.2 58 6.1 ESE 22 30 12 16 1006.3 1006.2 0.0
11/02:30pm 29.2 31.0 23.2 70 4.1 SE 19 26 10 14 1006.6 1006.5 0.0
11/02:00pm 29.8 30.1 22.3 64 5.1 SE 24 30 13 16 1006.6 1006.5 0.0
11/01:30pm 31.6 31.9 24.2 65 5.2 SE 30 37 16 20 1006.7 1006.6 0.0
11/01:00pm 31.7 32.5 23.2 60 5.9 ESE 24 39 13 21 1007.1 1007.0 0.0
11/12:30pm 31.7 34.2 23.8 63 5.5 ESE 17 26 9 14 1007.5 1007.4 0.0
11/12:00pm 31.5 32.1 22.8 60 6.0 SE 24 32 13 17 1007.8 1007.7 0.0
11/11:30am 31.8 33.2 22.5 58 6.4 SE 19 26 10 14 1008.2 1008.1 0.0
11/11:00am 31.4 32.5 22.4 59 6.1 ESE 20 28 11 15 1008.5 1008.4 0.0
11/10:30am 31.4 32.5 23.0 61 5.8 ESE 22 28 12 15 1008.5 1008.4 0.0
11/10:00am 30.8 32.7 23.7 66 4.9 SE 20 28 11 15 1008.8 1008.7 0.0
11/09:30am 30.2 33.1 23.9 69 4.4 SSE 15 20 8 11 1009.0 1008.9 0.0
11/09:00am 28.5 31.0 23.2 73 3.6 SSE 15 20 8 11 1009.1 1009.0 1.2
11/08:30am 28.7 31.1 22.9 71 4.0 SSE 15 20 8 11 1009.0 1008.9 1.2
11/08:00am 27.5 30.7 23.7 80 2.6 SE 13 17 7 9 1008.9 1008.8 1.2
11/07:30am 25.8 28.5 23.5 87 1.6 SE 15 19 8 10 1008.5 1008.4 1.2
11/07:00am 26.4 31.5 23.3 83 2.1 SSE 2 11 1 6 1008.3 1008.2 1.2
11/06:30am 24.4 29.9 23.4 94 0.7 CALM 0 0 0 0 1008.1 1008.0 1.2
11/06:00am 24.2 28.3 23.3 95 0.6 N 7 7 4 4 1007.9 1007.8 1.2
11/05:30am 24.4 28.8 22.8 91 1.1 SSW 4 7 2 4 1007.4 1007.3 1.2
11/05:00am 24.5 28.1 23.1 92 0.9 SSE 9 11 5 6 1007.1 1007.0 1.2
11/04:30am 24.5 28.8 22.6 89 1.3 SW 4 7 2 4 1007.0 1006.9 1.2
11/04:00am 24.6 27.2 22.7 89 1.3 SE 13 17 7 9 1006.8 1006.7 1.2
11/03:30am 25.0 27.3 22.7 87 1.5 SE 15 19 8 10 1006.8 1006.7 1.2
11/03:00am 24.6 27.7 22.8 90 1.2 SE 11 13 6 7 1006.9 1006.8 1.2
11/02:30am 24.7 26.7 22.9 90 1.2 SE 17 19 9 10 1006.7 1006.6 1.2
11/02:00am 24.7 27.1 22.9 90 1.2 SE 15 19 8 10 1006.9 1006.8 1.2
11/01:30am 24.9 27.7 23.0 89 1.3 SE 13 17 7 9 1007.2 1007.1 1.2
11/01:00am 25.0 27.7 22.9 88 1.4 SE 13 17 7 9 1007.6 1007.5 1.2
11/12:30am 25.3 28.9 23.0 87 1.6 ESE 9 15 5 8 1008.1 1008.0 1.2
11/12:00am 25.3 27.7 23.0 87 1.6 ESE 15 17 8 9 1008.4 1008.3 1.2
 
Date/Time
EST
Temp
°C
App
Temp
°C
Dew
Point
Rel
Hum
%
Delta-T
°C
Wind Press
QNH
hPa
Press
MSL
hPa
Rain
since 9 am
mm
Dir
 
Spd
km/h
Gust
km/h
Spd
kts
Gust
kts
10/11:30pm 25.3 27.7 23.0 87 1.6 SE 15 19 8 10 1008.5 1008.4 1.2
10/11:00pm 26.1 29.0 22.4 80 2.5 SSE 11 17 6 9 1008.8 1008.7 1.2
10/10:30pm 26.5 28.9 22.3 78 2.8 S 13 19 7 10 1008.9 1008.8 1.2
10/10:00pm 26.0 28.5 22.5 81 2.4 SE 13 17 7 9 1008.9 1008.8 1.2
10/09:30pm 26.2 28.6 22.3 79 2.6 SE 13 15 7 8 1008.6 1008.5 1.2
10/09:00pm 26.6 29.2 22.0 76 3.1 SSE 11 17 6 9 1008.5 1008.4 1.2
10/08:30pm 27.0 29.1 21.7 73 3.5 S 13 20 7 11 1008.4 1008.3 1.2
10/08:00pm 26.8 29.1 22.0 75 3.2 S 13 19 7 10 1008.4 1008.3 1.2
10/07:30pm 26.9 28.6 21.6 72 3.5 S 15 22 8 12 1008.2 1008.1 1.2
10/07:00pm 27.0 29.1 21.7 73 3.5 S 13 19 7 10 1007.8 1007.7 1.2
10/06:30pm 27.2 29.3 21.7 72 3.7 S 13 20 7 11 1007.4 1007.3 1.2
10/06:00pm 27.2 28.6 21.9 73 3.6 S 17 24 9 13 1007.2 1007.1 1.2
10/05:30pm 27.2 28.9 22.4 75 3.2 S 17 26 9 14 1006.8 1006.7 1.2
10/05:00pm 27.4 28.4 22.1 73 3.6 S 20 30 11 16 1006.7 1006.6 1.2
10/04:30pm 28.2 30.1 22.7 72 3.7 S 17 28 9 15 1006.3 1006.2 1.2
10/04:00pm 28.4 30.9 23.1 73 3.6 S 15 19 8 10 1006.3 1006.2 1.2
10/03:30pm 28.6 30.1 23.1 72 3.8 SSE 20 30 11 16 1006.2 1006.1 1.2
10/03:00pm 28.3 30.3 23.0 73 3.6 S 17 24 9 13 1006.5 1006.4 1.2
10/02:30pm 27.9 31.0 23.5 77 3.0 S 13 33 7 18 1006.8 1006.7 1.2
10/02:00pm 28.5 30.5 23.0 72 3.8 SSE 17 24 9 13 1007.0 1006.9 1.2
10/01:30pm 28.0 27.5 22.9 74 3.5 SE 30 37 16 20 1007.3 1007.2 1.2
10/01:00pm 29.4 31.7 23.4 70 4.1 SSE 17 28 9 15 1007.4 1007.3 1.2
10/12:30pm 29.2 31.6 23.6 72 3.9 SSE 17 30 9 16 1007.7 1007.6 1.2
10/12:00pm 27.4 29.9 23.2 78 2.9 S 15 26 8 14 1008.1 1008.0 1.2
10/11:57am 26.8 29.5 23.5 82 2.3 S 15 26 8 14 1008.1 1008.0 1.2
10/11:51am 26.1 29.0 23.8 87 1.6 S 15 22 8 12 1008.2 1008.1 1.2
10/11:30am 26.0 26.1 24.6 92 1.0 SE 32 48 17 26 1008.4 1008.3 0.0
10/11:26am 27.1 28.0 24.0 83 2.1 SSE 26 48 14 26 1008.4 1008.3 0.0
10/11:00am 30.8 33.5 23.5 65 5.0 S 15 22 8 12 1008.6 1008.5 0.0
10/10:30am 28.8 31.5 22.8 70 4.1 S 13 19 7 10 1008.8 1008.7 0.0
10/10:00am 28.3 30.0 23.0 73 3.6 S 19 30 10 16 1009.0 1008.9 0.0
10/09:30am 29.1 31.3 23.3 71 4.0 SSE 17 22 9 12 1009.0 1008.9 0.0
10/09:00am 28.7 31.5 23.6 74 3.5 SSE 15 24 8 13 1009.1 1009.0 7.0
10/08:30am 28.0 31.0 23.4 76 3.2 S 13 20 7 11 1008.9 1008.8 7.0
10/08:00am 27.3 29.9 23.3 79 2.7 SSE 15 20 8 11 1008.6 1008.5 7.0
10/07:30am 27.3 29.6 22.7 76 3.1 S 15 22 8 12 1008.2 1008.1 7.0
10/07:00am 26.8 29.3 22.4 77 3.0 S 13 20 7 11 1007.9 1007.8 7.0
10/06:30am 26.2 28.8 22.7 81 2.4 SSE 13 19 7 10 1007.6 1007.5 7.0
10/06:00am 26.0 28.4 22.9 83 2.1 S 15 26 8 14 1007.4 1007.3 7.0
10/05:30am 25.8 28.9 22.9 84 2.0 SSE 11 17 6 9 1007.1 1007.0 7.0
10/05:00am 26.0 28.5 23.1 84 2.0 SSE 15 26 8 14 1006.9 1006.8 7.0
10/04:30am 26.2 28.3 23.1 83 2.1 S 17 26 9 14 1006.6 1006.5 7.0
10/04:00am 26.3 29.1 23.0 82 2.2 S 13 20 7 11 1006.6 1006.5 7.0
10/03:30am 25.9 29.5 23.8 88 1.4 ESE 11 15 6 8 1006.8 1006.7 7.0
10/03:00am 25.9 29.4 23.6 87 1.6 ESE 11 13 6 7 1006.9 1006.8 7.0
10/02:30am 26.7 29.8 22.8 79 2.6 S 11 15 6 8 1006.9 1006.8 7.0
10/02:00am 26.1 29.6 23.6 86 1.7 SE 11 15 6 8 1007.0 1006.9 7.0
10/01:30am 26.7 29.7 23.4 82 2.3 SSE 13 20 7 11 1007.1 1007.0 7.0
10/01:00am 27.0 30.1 23.5 81 2.4 S 13 20 7 11 1007.6 1007.5 7.0
10/12:30am 27.1 30.0 23.1 79 2.7 SSW 13 26 7 14 1008.4 1008.3 7.0

Other Formats:

Comma delimited format used in spreadsheet applications
http://www.bom.gov.au/fwo/IDQ60801/IDQ60801.94287.axf

JavaScript Object Notation format (JSON) in row-major order
http://www.bom.gov.au/fwo/IDQ60801/IDQ60801.94287.json